首页
METAR-TAF:

METAR-TAF

机场 :

班斯卡-比斯特里察, 斯洛伐克

纬度: 48-38-17N, 经度: 019-08-03E, 海拔: 318米

当前天气观测

该预报发布于21分钟前的08:00 UTC
静风
温度 25°C
湿度 65%
气压 1019 hPa
能见度10公里或以上
少量云层高于3600英尺

METAR: LZSL 090800Z 00000KT 9999 FEW036 25/18 Q1019

时间: 10:21 (08:21 UTC)

预报

该预报发布于3小时和21分钟前的05:00 UTC
预报有效从09日的 06点(UTC)到 09日的 15点(UTC)
风速2节,风向多变
能见度10公里或以上
1500米以下无云,无积雨云
短暂存在
从 09日的 13点(UTC)到 09日的 15点(UTC)
少量云层高于4500英尺, 塔状积云.

TAF: LZSL 090500Z 0906/0915 VRB02KT CAVOK TEMPO 0913/0915 FEW045TCU

超过4000个机场的气象观测和天气预报(METAR&TAF报告)。

可查询的气象台以黄色和红色小点在地图上表示。

将鼠标移到小点上方,可查看气象台名称。

然后点击查看天气观测和预报。

如需切换地图:点击带黑十字的绿色按钮放大地图;点击带横线的绿色按钮缩小地图;或者点击绿色箭头查看邻近地区的地图。


METAR-TAF: